sensor_id;sensor_type;location;lat;lon;timestamp;pressure;altitude;pressure_sealevel;temperature;humidity
49947;BME280;35839;48.662;13.300;2023-02-23T05:38:02;97030.22;;;5.62;100.00
49947;BME280;35839;48.662;13.300;2023-02-23T05:40:27;97015.03;;;5.57;100.00
49947;BME280;35839;48.662;13.300;2023-02-23T05:42:57;97026.66;;;5.63;100.00
49947;BME280;35839;48.662;13.300;2023-02-23T05:45:23;97026.94;;;5.60;100.00
49947;BME280;35839;48.662;13.300;2023-02-23T05:47:48;97025.13;;;5.81;100.00
49947;BME280;35839;48.662;13.300;2023-02-23T05:50:13;97033.75;;;5.61;100.00
49947;BME280;35839;48.662;13.300;2023-02-23T05:52:39;97032.03;;;5.50;100.00
49947;BME280;35839;48.662;13.300;2023-02-23T05:55:07;97025.88;;;5.72;100.00
49947;BME280;35839;48.662;13.300;2023-02-23T05:57:33;97027.47;;;5.63;100.00
49947;BME280;35839;48.662;13.300;2023-02-23T05:59:58;97034.06;;;6.19;100.00
49947;BME280;35839;48.662;13.300;2023-02-23T06:02:24;97037.09;;;6.24;100.00
49947;BME280;35839;48.662;13.300;2023-02-23T06:04:49;97031.94;;;6.34;100.00
49947;BME280;35839;48.662;13.300;2023-02-23T06:07:15;97033.00;;;6.31;100.00
49947;BME280;35839;48.662;13.300;2023-02-23T06:09:40;97035.31;;;6.65;100.00
49947;BME280;35839;48.662;13.300;2023-02-23T06:12:05;97034.91;;;6.70;100.00
49947;BME280;35839;48.662;13.300;2023-02-23T06:14:31;97038.59;;;6.58;100.00
49947;BME280;35839;48.662;13.300;2023-02-23T06:16:57;97045.22;;;6.41;100.00
49947;BME280;35839;48.662;13.300;2023-02-23T06:19:23;97046.69;;;6.24;100.00
49947;BME280;35839;48.662;13.300;2023-02-23T06:21:48;97045.53;;;6.07;100.00
49947;BME280;35839;48.662;13.300;2023-02-23T06:24:13;97054.84;;;6.09;100.00
49947;BME280;35839;48.662;13.300;2023-02-23T06:26:39;97058.94;;;6.12;100.00
49947;BME280;35839;48.662;13.300;2023-02-23T06:29:04;97061.88;;;5.98;100.00
49947;BME280;35839;48.662;13.300;2023-02-23T06:31:29;97060.47;;;5.94;100.00
49947;BME280;35839;48.662;13.300;2023-02-23T06:33:55;97056.97;;;6.25;100.00
49947;BME280;35839;48.662;13.300;2023-02-23T06:36:20;97068.22;;;6.05;100.00
49947;BME280;35839;48.662;13.300;2023-02-23T06:38:45;97066.47;;;6.15;100.00
49947;BME280;35839;48.662;13.300;2023-02-23T06:41:11;97065.34;;;6.39;100.00
49947;BME280;35839;48.662;13.300;2023-02-23T06:43:37;97066.75;;;6.12;100.00
49947;BME280;35839;48.662;13.300;2023-02-23T06:46:02;97067.34;;;6.25;100.00
49947;BME280;35839;48.662;13.300;2023-02-23T06:48:28;97070.34;;;6.61;100.00
49947;BME280;35839;48.662;13.300;2023-02-23T06:50:57;97068.22;;;6.86;100.00
49947;BME280;35839;48.662;13.300;2023-02-23T06:53:22;97071.22;;;6.81;100.00
49947;BME280;35839;48.662;13.300;2023-02-23T06:55:49;97078.88;;;6.83;100.00
49947;BME280;35839;48.662;13.300;2023-02-23T06:58:14;97075.66;;;6.19;100.00
49947;BME280;35839;48.662;13.300;2023-02-23T07:00:39;97067.63;;;6.63;100.00
49947;BME280;35839;48.662;13.300;2023-02-23T07:03:08;97075.19;;;6.85;100.00
49947;BME280;35839;48.662;13.300;2023-02-23T07:05:34;97075.59;;;6.81;100.00
49947;BME280;35839;48.662;13.300;2023-02-23T07:07:59;97077.94;;;6.93;100.00
49947;BME280;35839;48.662;13.300;2023-02-23T07:10:24;97076.75;;;7.17;100.00
49947;BME280;35839;48.662;13.300;2023-02-23T07:12:52;97075.34;;;6.93;100.00
49947;BME280;35839;48.662;13.300;2023-02-23T07:15:17;97086.34;;;7.16;100.00
49947;BME280;35839;48.662;13.300;2023-02-23T07:17:44;97082.47;;;7.11;100.00
49947;BME280;35839;48.662;13.300;2023-02-23T07:20:13;97075.13;;;6.56;100.00
49947;BME280;35839;48.662;13.300;2023-02-23T07:22:38;97078.31;;;6.29;100.00
49947;BME280;35839;48.662;13.300;2023-02-23T07:25:04;97080.94;;;6.39;100.00
49947;BME280;35839;48.662;13.300;2023-02-23T07:27:30;97074.44;;;6.54;100.00
49947;BME280;35839;48.662;13.300;2023-02-23T07:29:55;97079.31;;;6.88;100.00
49947;BME280;35839;48.662;13.300;2023-02-23T07:32:20;97086.53;;;6.74;100.00
49947;BME280;35839;48.662;13.300;2023-02-23T07:34:45;97087.56;;;6.52;100.00
49947;BME280;35839;48.662;13.300;2023-02-23T07:37:12;97085.84;;;6.72;100.00
49947;BME280;35839;48.662;13.300;2023-02-23T07:39:37;97086.13;;;6.39;100.00
49947;BME280;35839;48.662;13.300;2023-02-23T07:42:03;97088.50;;;6.11;100.00
49947;BME280;35839;48.662;13.300;2023-02-23T07:44:28;97088.81;;;6.58;100.00
49947;BME280;35839;48.662;13.300;2023-02-23T07:46:53;97089.59;;;6.99;100.00
49947;BME280;35839;48.662;13.300;2023-02-23T07:49:19;97090.38;;;6.80;100.00
49947;BME280;35839;48.662;13.300;2023-02-23T07:51:44;97099.44;;;6.45;100.00
49947;BME280;35839;48.662;13.300;2023-02-23T07:54:09;97088.13;;;6.56;100.00
49947;BME280;35839;48.662;13.300;2023-02-23T07:56:35;97085.66;;;7.14;100.00
49947;BME280;35839;48.662;13.300;2023-02-23T07:59:00;97096.78;;;7.55;100.00
49947;BME280;35839;48.662;13.300;2023-02-23T08:01:26;97090.97;;;7.81;100.00
49947;BME280;35839;48.662;13.300;2023-02-23T08:03:51;97096.63;;;8.23;100.00
49947;BME280;35839;48.662;13.300;2023-02-23T08:06:17;97097.00;;;7.81;100.00
49947;BME280;35839;48.662;13.300;2023-02-23T08:08:43;97090.72;;;7.65;100.00
49947;BME280;35839;48.662;13.300;2023-02-23T08:11:09;97096.84;;;7.83;100.00
49947;BME280;35839;48.662;13.300;2023-02-23T08:13:35;97110.34;;;7.39;100.00
49947;BME280;35839;48.662;13.300;2023-02-23T08:16:01;97103.22;;;7.42;100.00
49947;BME280;35839;48.662;13.300;2023-02-23T08:18:27;97104.16;;;7.70;100.00
49947;BME280;35839;48.662;13.300;2023-02-23T08:21:03;97107.47;;;7.33;100.00
49947;BME280;35839;48.662;13.300;2023-02-23T08:23:31;97111.84;;;7.42;100.00
49947;BME280;35839;48.662;13.300;2023-02-23T08:25:58;97108.97;;;7.35;100.00
49947;BME280;35839;48.662;13.300;2023-02-23T08:28:24;97104.00;;;7.03;100.00
49947;BME280;35839;48.662;13.300;2023-02-23T08:30:51;97110.47;;;7.09;100.00
49947;BME280;35839;48.662;13.300;2023-02-23T08:33:19;97103.88;;;7.73;100.00
49947;BME280;35839;48.662;13.300;2023-02-23T08:35:45;97108.28;;;7.63;100.00
49947;BME280;35839;48.662;13.300;2023-02-23T08:38:10;97114.00;;;7.95;100.00
49947;BME280;35839;48.662;13.300;2023-02-23T08:40:35;97118.22;;;8.16;100.00
49947;BME280;35839;48.662;13.300;2023-02-23T08:43:01;97123.00;;;8.20;100.00
49947;BME280;35839;48.662;13.300;2023-02-23T08:45:26;97109.69;;;8.23;100.00
49947;BME280;35839;48.662;13.300;2023-02-23T08:47:54;97117.53;;;8.14;100.00
49947;BME280;35839;48.662;13.300;2023-02-23T08:50:19;97127.34;;;8.30;100.00
49947;BME280;35839;48.662;13.300;2023-02-23T08:52:44;97118.28;;;8.43;100.00
49947;BME280;35839;48.662;13.300;2023-02-23T08:55:10;97111.34;;;8.62;100.00
49947;BME280;35839;48.662;13.300;2023-02-23T08:57:36;97117.56;;;7.94;100.00
49947;BME280;35839;48.662;13.300;2023-02-23T09:00:03;97109.34;;;8.83;100.00
49947;BME280;35839;48.662;13.300;2023-02-23T09:02:36;97113.94;;;8.62;100.00
49947;BME280;35839;48.662;13.300;2023-02-23T09:05:02;97113.69;;;8.55;100.00
49947;BME280;35839;48.662;13.300;2023-02-23T09:07:27;97115.63;;;8.81;100.00
49947;BME280;35839;48.662;13.300;2023-02-23T09:09:56;97121.88;;;8.42;100.00
49947;BME280;35839;48.662;13.300;2023-02-23T09:12:21;97115.78;;;8.52;100.00
49947;BME280;35839;48.662;13.300;2023-02-23T09:14:47;97118.59;;;8.68;100.00
49947;BME280;35839;48.662;13.300;2023-02-23T09:17:12;97121.78;;;8.62;100.00
49947;BME280;35839;48.662;13.300;2023-02-23T09:19:38;97117.03;;;9.03;100.00
49947;BME280;35839;48.662;13.300;2023-02-23T09:22:03;97125.28;;;8.80;100.00
49947;BME280;35839;48.662;13.300;2023-02-23T09:24:29;97116.19;;;8.57;100.00
49947;BME280;35839;48.662;13.300;2023-02-23T09:26:54;97123.22;;;9.02;100.00
49947;BME280;35839;48.662;13.300;2023-02-23T09:29:19;97119.84;;;8.64;100.00
49947;BME280;35839;48.662;13.300;2023-02-23T09:31:45;97125.00;;;8.83;100.00
49947;BME280;35839;48.662;13.300;2023-02-23T09:34:10;97122.00;;;9.24;100.00
49947;BME280;35839;48.662;13.300;2023-02-23T09:36:37;97132.75;;;9.75;100.00
49947;BME280;35839;48.662;13.300;2023-02-23T09:39:02;97126.41;;;9.59;100.00
49947;BME280;35839;48.662;13.300;2023-02-23T09:41:39;97122.91;;;9.68;100.00
49947;BME280;35839;48.662;13.300;2023-02-23T09:49:28;97127.00;;;9.53;100.00
49947;BME280;35839;48.662;13.300;2023-02-23T09:51:57;97119.75;;;9.65;100.00
49947;BME280;35839;48.662;13.300;2023-02-23T09:54:28;97120.88;;;9.62;100.00
49947;BME280;35839;48.662;13.300;2023-02-23T09:56:54;97122.34;;;10.01;100.00
49947;BME280;35839;48.662;13.300;2023-02-23T09:59:22;97127.78;;;10.07;100.00
49947;BME280;35839;48.662;13.300;2023-02-23T10:01:53;97124.66;;;10.30;100.00
49947;BME280;35839;48.662;13.300;2023-02-23T10:04:26;97123.59;;;10.75;100.00
49947;BME280;35839;48.662;13.300;2023-02-23T10:06:58;97126.38;;;10.73;100.00
49947;BME280;35839;48.662;13.300;2023-02-23T10:12:09;97127.22;;;10.82;100.00
49947;BME280;35839;48.662;13.300;2023-02-23T10:20:31;97118.69;;;10.20;100.00
49947;BME280;35839;48.662;13.300;2023-02-23T10:23:04;97118.38;;;10.23;100.00
49947;BME280;35839;48.662;13.300;2023-02-23T10:25:35;97110.72;;;10.47;100.00
49947;BME280;35839;48.662;13.300;2023-02-23T10:28:03;97117.78;;;10.55;100.00
49947;BME280;35839;48.662;13.300;2023-02-23T10:30:32;97119.97;;;10.16;100.00
49947;BME280;35839;48.662;13.300;2023-02-23T10:35:28;97121.53;;;9.82;100.00
49947;BME280;35839;48.662;13.300;2023-02-23T10:37:55;97116.53;;;10.15;100.00
49947;BME280;35839;48.662;13.300;2023-02-23T10:40:24;97119.00;;;10.17;100.00
49947;BME280;35839;48.662;13.300;2023-02-23T10:42:52;97114.84;;;10.06;100.00
49947;BME280;35839;48.662;13.300;2023-02-23T10:45:23;97115.31;;;10.01;100.00
49947;BME280;35839;48.662;13.300;2023-02-23T10:47:57;97116.69;;;10.13;100.00
49947;BME280;35839;48.662;13.300;2023-02-23T10:50:25;97112.94;;;10.68;100.00
49947;BME280;35839;48.662;13.300;2023-02-23T10:52:59;97112.22;;;10.58;100.00
49947;BME280;35839;48.662;13.300;2023-02-23T10:55:30;97115.72;;;10.15;100.00
49947;BME280;35839;48.662;13.300;2023-02-23T10:58:05;97112.38;;;10.04;100.00
49947;BME280;35839;48.662;13.300;2023-02-23T11:00:33;97107.84;;;10.32;100.00
49947;BME280;35839;48.662;13.300;2023-02-23T11:03:01;97098.72;;;10.79;100.00
49947;BME280;35839;48.662;13.300;2023-02-23T11:05:46;97100.88;;;11.59;100.00
49947;BME280;35839;48.662;13.300;2023-02-23T11:08:27;97102.06;;;10.97;100.00
49947;BME280;35839;48.662;13.300;2023-02-23T11:11:27;97102.38;;;10.94;100.00
49947;BME280;35839;48.662;13.300;2023-02-23T11:13:55;97105.41;;;11.24;100.00
49947;BME280;35839;48.662;13.300;2023-02-23T11:16:29;97101.06;;;10.90;100.00
49947;BME280;35839;48.662;13.300;2023-02-23T11:19:02;97105.97;;;10.85;100.00
49947;BME280;35839;48.662;13.300;2023-02-23T11:21:33;97097.97;;;10.95;100.00
49947;BME280;35839;48.662;13.300;2023-02-23T11:24:21;97090.19;;;11.36;100.00
49947;BME280;35839;48.662;13.300;2023-02-23T11:26:50;97087.75;;;11.67;100.00
49947;BME280;35839;48.662;13.300;2023-02-23T11:29:28;97093.59;;;11.12;100.00
49947;BME280;35839;48.662;13.300;2023-02-23T11:31:57;97088.91;;;10.73;100.00
49947;BME280;35839;48.662;13.300;2023-02-23T11:34:32;97084.88;;;10.95;100.00
49947;BME280;35839;48.662;13.300;2023-02-23T11:37:06;97089.72;;;11.41;100.00
49947;BME280;35839;48.662;13.300;2023-02-23T11:39:32;97085.75;;;11.20;100.00
49947;BME280;35839;48.662;13.300;2023-02-23T11:42:15;97087.06;;;11.32;100.00
49947;BME280;35839;48.662;13.300;2023-02-23T11:44:41;97085.59;;;11.46;100.00
49947;BME280;35839;48.662;13.300;2023-02-23T11:47:14;97082.66;;;11.41;100.00
49947;BME280;35839;48.662;13.300;2023-02-23T11:49:43;97075.47;;;11.43;100.00
49947;BME280;35839;48.662;13.300;2023-02-23T11:52:15;97069.69;;;11.39;100.00
49947;BME280;35839;48.662;13.300;2023-02-23T11:54:49;97067.59;;;11.43;100.00
49947;BME280;35839;48.662;13.300;2023-02-23T11:57:21;97061.38;;;11.69;100.00
49947;BME280;35839;48.662;13.300;2023-02-23T11:59:47;97072.53;;;11.87;100.00
49947;BME280;35839;48.662;13.300;2023-02-23T12:02:25;97063.50;;;11.90;100.00
49947;BME280;35839;48.662;13.300;2023-02-23T12:05:15;97069.72;;;11.80;100.00
49947;BME280;35839;48.662;13.300;2023-02-23T12:07:53;97069.72;;;12.05;100.00
49947;BME280;35839;48.662;13.300;2023-02-23T12:10:27;97064.09;;;12.16;100.00
49947;BME280;35839;48.662;13.300;2023-02-23T12:13:04;97053.59;;;12.25;100.00
49947;BME280;35839;48.662;13.300;2023-02-23T12:18:47;97051.78;;;12.73;100.00
49947;BME280;35839;48.662;13.300;2023-02-23T12:21:40;97052.59;;;12.34;100.00
49947;BME280;35839;48.662;13.300;2023-02-23T12:26:37;97059.84;;;12.15;100.00
49947;BME280;35839;48.662;13.300;2023-02-23T12:29:30;97056.97;;;12.89;100.00
49947;BME280;35839;48.662;13.300;2023-02-23T12:32:14;97049.41;;;12.55;100.00
49947;BME280;35839;48.662;13.300;2023-02-23T12:34:46;97047.00;;;12.37;100.00
49947;BME280;35839;48.662;13.300;2023-02-23T12:37:27;97047.94;;;12.44;100.00
49947;BME280;35839;48.662;13.300;2023-02-23T12:40:06;97048.91;;;12.51;100.00
49947;BME280;35839;48.662;13.300;2023-02-23T12:42:42;97046.56;;;12.56;100.00
49947;BME280;35839;48.662;13.300;2023-02-23T12:45:20;97041.91;;;12.75;100.00
49947;BME280;35839;48.662;13.300;2023-02-23T12:48:02;97045.56;;;12.65;100.00
49947;BME280;35839;48.662;13.300;2023-02-23T12:50:39;97041.78;;;12.20;100.00
49947;BME280;35839;48.662;13.300;2023-02-23T12:55:49;97034.50;;;12.78;100.00
49947;BME280;35839;48.662;13.300;2023-02-23T12:58:29;97035.63;;;12.84;100.00
49947;BME280;35839;48.662;13.300;2023-02-23T13:01:10;97031.66;;;13.19;100.00
49947;BME280;35839;48.662;13.300;2023-02-23T13:04:02;97030.25;;;13.00;100.00
49947;BME280;35839;48.662;13.300;2023-02-23T13:06:48;97032.78;;;13.17;100.00
49947;BME280;35839;48.662;13.300;2023-02-23T13:09:44;97033.09;;;13.22;100.00
49947;BME280;35839;48.662;13.300;2023-02-23T13:12:35;97021.59;;;13.46;99.74
49947;BME280;35839;48.662;13.300;2023-02-23T13:28:37;97025.16;;;14.21;97.37
49947;BME280;35839;48.662;13.300;2023-02-23T13:31:03;97027.59;;;14.52;96.78
49947;BME280;35839;48.662;13.300;2023-02-23T13:33:29;97029.53;;;14.43;95.21
49947;BME280;35839;48.662;13.300;2023-02-23T13:36:03;97022.50;;;14.36;94.03
49947;BME280;35839;48.662;13.300;2023-02-23T13:41:38;97025.81;;;14.08;96.35
49947;BME280;35839;48.662;13.300;2023-02-23T13:44:32;97023.78;;;14.10;94.07
49947;BME280;35839;48.662;13.300;2023-02-23T13:49:51;97028.06;;;14.41;95.05
49947;BME280;35839;48.662;13.300;2023-02-23T13:52:40;97020.44;;;14.16;96.61
49947;BME280;35839;48.662;13.300;2023-02-23T13:57:53;97015.72;;;14.26;94.61
49947;BME280;35839;48.662;13.300;2023-02-23T14:00:22;97018.09;;;14.06;96.97
49947;BME280;35839;48.662;13.300;2023-02-23T14:02:48;97014.00;;;14.33;94.93
49947;BME280;35839;48.662;13.300;2023-02-23T14:05:25;97015.28;;;14.08;95.46
49947;BME280;35839;48.662;13.300;2023-02-23T14:08:03;97021.16;;;14.40;92.92
49947;BME280;35839;48.662;13.300;2023-02-23T14:10:42;97014.69;;;14.72;91.99
49947;BME280;35839;48.662;13.300;2023-02-23T14:20:57;97015.25;;;14.38;94.76
49947;BME280;35839;48.662;13.300;2023-02-23T14:23:29;97015.81;;;14.33;95.84
49947;BME280;35839;48.662;13.300;2023-02-23T14:35:03;97010.34;;;14.05;97.66
49947;BME280;35839;48.662;13.300;2023-02-23T14:37:34;97006.53;;;13.93;98.86
49947;BME280;35839;48.662;13.300;2023-02-23T14:40:21;97005.19;;;14.11;98.03
49947;BME280;35839;48.662;13.300;2023-02-23T14:42:50;97002.25;;;13.77;100.00
49947;BME280;35839;48.662;13.300;2023-02-23T14:47:51;96997.94;;;14.13;97.99
49947;BME280;35839;48.662;13.300;2023-02-23T14:50:27;97002.72;;;14.10;97.15
49947;BME280;35839;48.662;13.300;2023-02-23T14:52:55;97003.31;;;13.67;99.39
49947;BME280;35839;48.662;13.300;2023-02-23T14:55:24;97001.66;;;13.89;98.32
49947;BME280;35839;48.662;13.300;2023-02-23T14:57:51;96994.84;;;13.80;98.72
49947;BME280;35839;48.662;13.300;2023-02-23T15:00:23;96999.00;;;14.04;96.53
49947;BME280;35839;48.662;13.300;2023-02-23T15:02:58;96999.47;;;14.08;96.43
49947;BME280;35839;48.662;13.300;2023-02-23T15:05:29;97006.00;;;13.82;98.15
49947;BME280;35839;48.662;13.300;2023-02-23T15:07:58;97000.38;;;13.85;98.24
49947;BME280;35839;48.662;13.300;2023-02-23T15:10:30;97002.19;;;13.85;97.14
49947;BME280;35839;48.662;13.300;2023-02-23T15:12:57;96999.81;;;14.05;97.21
49947;BME280;35839;48.662;13.300;2023-02-23T15:15:24;96999.84;;;14.20;96.23
49947;BME280;35839;48.662;13.300;2023-02-23T15:17:53;96990.41;;;14.10;96.28
49947;BME280;35839;48.662;13.300;2023-02-23T15:20:21;96996.38;;;13.89;97.96
49947;BME280;35839;48.662;13.300;2023-02-23T15:22:56;96996.56;;;14.32;94.97
49947;BME280;35839;48.662;13.300;2023-02-23T15:25:25;96992.09;;;14.48;93.06
49947;BME280;35839;48.662;13.300;2023-02-23T15:27:58;96990.91;;;14.50;92.51
49947;BME280;35839;48.662;13.300;2023-02-23T15:30:30;96989.13;;;14.36;93.69
49947;BME280;35839;48.662;13.300;2023-02-23T15:35:25;96985.56;;;14.59;91.93
49947;BME280;35839;48.662;13.300;2023-02-23T15:37:51;96990.59;;;13.94;95.25
49947;BME280;35839;48.662;13.300;2023-02-23T15:40:21;96988.00;;;14.01;95.52
49947;BME280;35839;48.662;13.300;2023-02-23T15:42:50;96988.00;;;13.71;97.26
49947;BME280;35839;48.662;13.300;2023-02-23T15:47:58;96984.78;;;13.23;100.00
49947;BME280;35839;48.662;13.300;2023-02-23T15:50:29;96985.13;;;12.65;100.00
49947;BME280;35839;48.662;13.300;2023-02-23T15:53:25;96988.38;;;12.76;100.00
49947;BME280;35839;48.662;13.300;2023-02-23T15:55:54;96985.97;;;12.66;100.00
49947;BME280;35839;48.662;13.300;2023-02-23T15:58:26;96982.00;;;12.70;100.00
49947;BME280;35839;48.662;13.300;2023-02-23T16:00:57;96985.34;;;12.64;100.00
49947;BME280;35839;48.662;13.300;2023-02-23T16:03:33;96977.59;;;12.94;100.00
49947;BME280;35839;48.662;13.300;2023-02-23T16:06:04;96981.16;;;13.01;100.00
49947;BME280;35839;48.662;13.300;2023-02-23T16:08:31;96972.81;;;13.20;100.00
49947;BME280;35839;48.662;13.300;2023-02-23T16:13:27;96977.91;;;13.22;100.00
49947;BME280;35839;48.662;13.300;2023-02-23T16:15:54;96975.31;;;13.14;100.00
49947;BME280;35839;48.662;13.300;2023-02-23T16:18:30;96976.97;;;13.15;100.00
49947;BME280;35839;48.662;13.300;2023-02-23T16:20:58;96978.59;;;13.39;98.47
49947;BME280;35839;48.662;13.300;2023-02-23T16:23:28;96982.69;;;13.41;97.62
49947;BME280;35839;48.662;13.300;2023-02-23T16:25:57;96967.59;;;13.12;99.51
49947;BME280;35839;48.662;13.300;2023-02-23T16:28:30;96972.44;;;13.00;100.00
49947;BME280;35839;48.662;13.300;2023-02-23T16:33:40;96982.28;;;13.67;94.22
49947;BME280;35839;48.662;13.300;2023-02-23T16:36:13;96979.88;;;13.43;95.89
49947;BME280;35839;48.662;13.300;2023-02-23T16:41:18;96979.13;;;13.11;97.54
49947;BME280;35839;48.662;13.300;2023-02-23T16:43:47;96983.63;;;12.40;100.00
49947;BME280;35839;48.662;13.300;2023-02-23T16:46:14;96982.72;;;12.25;100.00
49947;BME280;35839;48.662;13.300;2023-02-23T16:48:39;96980.97;;;12.48;100.00
49947;BME280;35839;48.662;13.300;2023-02-23T16:51:23;96984.53;;;12.24;100.00
49947;BME280;35839;48.662;13.300;2023-02-23T16:53:49;96975.94;;;11.99;100.00
49947;BME280;35839;48.662;13.300;2023-02-23T16:56:18;96985.63;;;12.38;100.00
49947;BME280;35839;48.662;13.300;2023-02-23T16:58:46;96993.00;;;11.87;100.00
49947;BME280;35839;48.662;13.300;2023-02-23T17:01:13;96988.94;;;11.43;100.00
49947;BME280;35839;48.662;13.300;2023-02-23T17:03:38;96994.66;;;11.47;100.00
49947;BME280;35839;48.662;13.300;2023-02-23T17:06:05;96986.13;;;11.69;100.00
49947;BME280;35839;48.662;13.300;2023-02-23T17:08:30;96991.03;;;11.56;100.00
49947;BME280;35839;48.662;13.300;2023-02-23T17:10:56;96990.53;;;11.85;100.00
49947;BME280;35839;48.662;13.300;2023-02-23T17:13:26;96994.31;;;11.82;100.00
49947;BME280;35839;48.662;13.300;2023-02-23T17:15:54;97000.56;;;11.49;100.00
49947;BME280;35839;48.662;13.300;2023-02-23T17:18:22;97005.28;;;11.70;100.00
49947;BME280;35839;48.662;13.300;2023-02-23T17:20:51;96995.97;;;11.75;100.00
49947;BME280;35839;48.662;13.300;2023-02-23T17:23:18;97006.09;;;11.78;100.00
49947;BME280;35839;48.662;13.300;2023-02-23T17:25:44;97008.09;;;11.44;100.00
49947;BME280;35839;48.662;13.300;2023-02-23T17:28:09;96998.91;;;11.64;100.00
49947;BME280;35839;48.662;13.300;2023-02-23T17:30:35;97003.50;;;11.62;100.00
49947;BME280;35839;48.662;13.300;2023-02-23T17:33:01;97005.50;;;11.27;100.00
49947;BME280;35839;48.662;13.300;2023-02-23T17:35:28;96999.56;;;10.92;100.00
49947;BME280;35839;48.662;13.300;2023-02-23T17:37:57;97009.84;;;10.78;100.00
49947;BME280;35839;48.662;13.300;2023-02-23T17:40:23;97010.53;;;10.80;100.00
49947;BME280;35839;48.662;13.300;2023-02-23T17:42:51;97006.34;;;10.52;100.00
49947;BME280;35839;48.662;13.300;2023-02-23T17:45:16;97008.56;;;10.39;100.00
49947;BME280;35839;48.662;13.300;2023-02-23T17:47:41;97005.75;;;10.83;100.00
49947;BME280;35839;48.662;13.300;2023-02-23T17:50:08;97007.72;;;10.73;100.00
49947;BME280;35839;48.662;13.300;2023-02-23T17:52:33;97010.00;;;10.76;100.00
49947;BME280;35839;48.662;13.300;2023-02-23T17:54:58;97007.47;;;11.17;100.00
49947;BME280;35839;48.662;13.300;2023-02-23T17:57:24;97006.81;;;10.48;100.00
49947;BME280;35839;48.662;13.300;2023-02-23T17:59:50;97006.81;;;10.13;100.00
49947;BME280;35839;48.662;13.300;2023-02-23T18:02:18;96997.50;;;10.53;100.00
49947;BME280;35839;48.662;13.300;2023-02-23T18:04:45;97008.19;;;10.76;100.00
49947;BME280;35839;48.662;13.300;2023-02-23T18:07:10;96999.88;;;10.89;100.00
49947;BME280;35839;48.662;13.300;2023-02-23T18:09:36;97000.69;;;10.73;100.00
49947;BME280;35839;48.662;13.300;2023-02-23T18:12:02;96994.53;;;10.40;100.00
49947;BME280;35839;48.662;13.300;2023-02-23T18:14:27;97002.28;;;10.74;100.00
49947;BME280;35839;48.662;13.300;2023-02-23T18:16:53;96994.47;;;10.83;100.00
49947;BME280;35839;48.662;13.300;2023-02-23T18:19:19;96996.88;;;10.51;100.00
49947;BME280;35839;48.662;13.300;2023-02-23T18:21:44;96995.94;;;10.77;100.00
49947;BME280;35839;48.662;13.300;2023-02-23T18:24:10;96995.63;;;10.96;100.00
49947;BME280;35839;48.662;13.300;2023-02-23T18:26:36;96987.91;;;10.79;100.00
49947;BME280;35839;48.662;13.300;2023-02-23T18:29:02;96989.44;;;10.30;100.00
49947;BME280;35839;48.662;13.300;2023-02-23T18:31:29;96986.00;;;10.38;100.00
49947;BME280;35839;48.662;13.300;2023-02-23T18:33:56;96987.19;;;10.52;100.00
49947;BME280;35839;48.662;13.300;2023-02-23T18:36:30;96981.81;;;10.62;100.00
49947;BME280;35839;48.662;13.300;2023-02-23T18:38:57;96988.66;;;10.46;100.00
49947;BME280;35839;48.662;13.300;2023-02-23T18:41:23;96990.34;;;10.64;100.00
49947;BME280;35839;48.662;13.300;2023-02-23T18:43:48;96981.25;;;10.42;100.00
49947;BME280;35839;48.662;13.300;2023-02-23T18:46:15;96988.38;;;10.66;100.00
49947;BME280;35839;48.662;13.300;2023-02-23T18:48:41;96981.72;;;10.96;100.00
49947;BME280;35839;48.662;13.300;2023-02-23T18:51:07;96984.81;;;10.83;100.00
49947;BME280;35839;48.662;13.300;2023-02-23T18:53:37;96988.53;;;10.56;100.00
49947;BME280;35839;48.662;13.300;2023-02-23T18:56:07;96985.00;;;10.31;100.00
49947;BME280;35839;48.662;13.300;2023-02-23T18:58:34;96987.31;;;10.34;100.00
49947;BME280;35839;48.662;13.300;2023-02-23T19:00:59;96989.09;;;11.01;100.00
49947;BME280;35839;48.662;13.300;2023-02-23T19:03:25;96990.09;;;11.08;100.00
49947;BME280;35839;48.662;13.300;2023-02-23T19:05:50;96991.75;;;11.33;100.00
49947;BME280;35839;48.662;13.300;2023-02-23T19:08:19;96988.13;;;11.43;100.00
49947;BME280;35839;48.662;13.300;2023-02-23T19:10:45;96991.22;;;11.63;100.00
49947;BME280;35839;48.662;13.300;2023-02-23T19:13:10;96981.03;;;11.68;100.00
49947;BME280;35839;48.662;13.300;2023-02-23T19:15:36;96978.44;;;11.59;100.00
49947;BME280;35839;48.662;13.300;2023-02-23T19:18:02;96988.44;;;10.99;100.00
49947;BME280;35839;48.662;13.300;2023-02-23T19:20:27;96985.50;;;11.02;100.00
49947;BME280;35839;48.662;13.300;2023-02-23T19:22:57;96985.81;;;10.90;100.00
49947;BME280;35839;48.662;13.300;2023-02-23T19:25:23;96979.88;;;10.72;100.00
49947;BME280;35839;48.662;13.300;2023-02-23T19:27:49;96976.19;;;11.24;100.00
49947;BME280;35839;48.662;13.300;2023-02-23T19:30:14;96974.19;;;11.42;100.00
49947;BME280;35839;48.662;13.300;2023-02-23T19:32:39;96980.38;;;10.84;100.00
49947;BME280;35839;48.662;13.300;2023-02-23T19:35:07;96983.19;;;10.82;100.00
49947;BME280;35839;48.662;13.300;2023-02-23T19:37:34;96977.97;;;11.07;100.00
49947;BME280;35839;48.662;13.300;2023-02-23T19:40:00;96981.63;;;10.47;100.00
49947;BME280;35839;48.662;13.300;2023-02-23T19:42:25;96979.78;;;10.39;100.00
49947;BME280;35839;48.662;13.300;2023-02-23T19:44:50;96977.88;;;10.49;100.00
49947;BME280;35839;48.662;13.300;2023-02-23T19:47:16;96974.47;;;10.73;100.00
49947;BME280;35839;48.662;13.300;2023-02-23T19:49:41;96981.25;;;11.09;100.00
49947;BME280;35839;48.662;13.300;2023-02-23T19:52:06;96983.81;;;10.76;100.00